sensor_id;sensor_type;location;lat;lon;timestamp;P1;durP1;ratioP1;P2;durP2;ratioP2
10701;SDS011;5402;50.004;8.246;2024-03-06T00:01:03;4.17;;;2.50;;
10701;SDS011;5402;50.004;8.246;2024-03-06T00:03:33;3.57;;;2.60;;
10701;SDS011;5402;50.004;8.246;2024-03-06T00:05:59;3.30;;;2.63;;
10701;SDS011;5402;50.004;8.246;2024-03-06T00:08:26;4.17;;;2.73;;
10701;SDS011;5402;50.004;8.246;2024-03-06T00:10:53;4.43;;;2.80;;
10701;SDS011;5402;50.004;8.246;2024-03-06T00:13:20;4.17;;;2.80;;
10701;SDS011;5402;50.004;8.246;2024-03-06T00:15:47;4.27;;;2.97;;
10701;SDS011;5402;50.004;8.246;2024-03-06T00:18:13;3.10;;;2.77;;
10701;SDS011;5402;50.004;8.246;2024-03-06T00:20:42;3.77;;;2.90;;
10701;SDS011;5402;50.004;8.246;2024-03-06T00:23:09;3.43;;;2.67;;
10701;SDS011;5402;50.004;8.246;2024-03-06T00:25:36;3.43;;;2.77;;
10701;SDS011;5402;50.004;8.246;2024-03-06T00:28:03;3.20;;;2.57;;
10701;SDS011;5402;50.004;8.246;2024-03-06T00:30:31;4.97;;;2.60;;
10701;SDS011;5402;50.004;8.246;2024-03-06T00:32:57;2.97;;;2.47;;
10701;SDS011;5402;50.004;8.246;2024-03-06T00:35:24;3.23;;;2.63;;
10701;SDS011;5402;50.004;8.246;2024-03-06T00:37:53;3.53;;;2.73;;
10701;SDS011;5402;50.004;8.246;2024-03-06T00:40:19;2.47;;;2.27;;
10701;SDS011;5402;50.004;8.246;2024-03-06T00:42:46;4.10;;;2.53;;
10701;SDS011;5402;50.004;8.246;2024-03-06T00:45:13;3.33;;;2.50;;
10701;SDS011;5402;50.004;8.246;2024-03-06T00:47:39;3.73;;;2.57;;
10701;SDS011;5402;50.004;8.246;2024-03-06T00:50:07;3.77;;;2.70;;
10701;SDS011;5402;50.004;8.246;2024-03-06T00:52:34;2.90;;;2.53;;
10701;SDS011;5402;50.004;8.246;2024-03-06T00:55:02;3.67;;;2.43;;
10701;SDS011;5402;50.004;8.246;2024-03-06T00:57:30;3.17;;;2.50;;
10701;SDS011;5402;50.004;8.246;2024-03-06T00:59:57;5.47;;;2.50;;
10701;SDS011;5402;50.004;8.246;2024-03-06T01:02:23;4.77;;;2.73;;
10701;SDS011;5402;50.004;8.246;2024-03-06T01:04:50;3.50;;;2.60;;
10701;SDS011;5402;50.004;8.246;2024-03-06T01:07:17;5.60;;;2.90;;
10701;SDS011;5402;50.004;8.246;2024-03-06T01:09:44;4.70;;;2.83;;
10701;SDS011;5402;50.004;8.246;2024-03-06T01:12:12;5.50;;;3.07;;
10701;SDS011;5402;50.004;8.246;2024-03-06T01:14:43;3.23;;;2.80;;
10701;SDS011;5402;50.004;8.246;2024-03-06T01:17:10;3.60;;;2.80;;
10701;SDS011;5402;50.004;8.246;2024-03-06T01:19:36;3.53;;;2.87;;
10701;SDS011;5402;50.004;8.246;2024-03-06T01:22:03;3.33;;;2.67;;
10701;SDS011;5402;50.004;8.246;2024-03-06T01:24:30;3.67;;;2.50;;
10701;SDS011;5402;50.004;8.246;2024-03-06T01:26:59;3.47;;;2.70;;
10701;SDS011;5402;50.004;8.246;2024-03-06T01:29:28;4.30;;;2.83;;
10701;SDS011;5402;50.004;8.246;2024-03-06T01:31:55;3.07;;;2.57;;
10701;SDS011;5402;50.004;8.246;2024-03-06T01:34:22;3.07;;;2.60;;
10701;SDS011;5402;50.004;8.246;2024-03-06T01:36:49;4.10;;;3.10;;
10701;SDS011;5402;50.004;8.246;2024-03-06T01:39:16;3.40;;;2.90;;
10701;SDS011;5402;50.004;8.246;2024-03-06T01:41:44;3.57;;;2.90;;
10701;SDS011;5402;50.004;8.246;2024-03-06T01:44:13;4.03;;;3.03;;
10701;SDS011;5402;50.004;8.246;2024-03-06T01:46:42;5.23;;;3.17;;
10701;SDS011;5402;50.004;8.246;2024-03-06T01:49:09;4.83;;;2.93;;
10701;SDS011;5402;50.004;8.246;2024-03-06T01:51:37;3.97;;;3.10;;
10701;SDS011;5402;50.004;8.246;2024-03-06T01:54:04;3.67;;;3.37;;
10701;SDS011;5402;50.004;8.246;2024-03-06T01:56:35;3.77;;;2.80;;
10701;SDS011;5402;50.004;8.246;2024-03-06T01:59:06;4.00;;;3.17;;
10701;SDS011;5402;50.004;8.246;2024-03-06T02:01:33;5.20;;;3.23;;
10701;SDS011;5402;50.004;8.246;2024-03-06T02:04:01;3.83;;;3.10;;
10701;SDS011;5402;50.004;8.246;2024-03-06T02:06:29;4.23;;;3.10;;
10701;SDS011;5402;50.004;8.246;2024-03-06T02:08:56;4.63;;;2.70;;
10701;SDS011;5402;50.004;8.246;2024-03-06T02:11:23;3.87;;;2.70;;
10701;SDS011;5402;50.004;8.246;2024-03-06T02:13:50;3.67;;;2.83;;
10701;SDS011;5402;50.004;8.246;2024-03-06T02:16:16;3.97;;;3.00;;
10701;SDS011;5402;50.004;8.246;2024-03-06T02:18:52;3.70;;;2.73;;
10701;SDS011;5402;50.004;8.246;2024-03-06T02:21:20;4.80;;;2.80;;
10701;SDS011;5402;50.004;8.246;2024-03-06T02:23:48;4.97;;;2.87;;
10701;SDS011;5402;50.004;8.246;2024-03-06T02:26:16;3.60;;;2.70;;
10701;SDS011;5402;50.004;8.246;2024-03-06T02:28:46;3.60;;;2.80;;
10701;SDS011;5402;50.004;8.246;2024-03-06T02:31:13;3.57;;;2.47;;
10701;SDS011;5402;50.004;8.246;2024-03-06T02:33:40;3.13;;;2.60;;
10701;SDS011;5402;50.004;8.246;2024-03-06T02:36:07;3.07;;;2.57;;
10701;SDS011;5402;50.004;8.246;2024-03-06T02:38:35;3.40;;;2.63;;
10701;SDS011;5402;50.004;8.246;2024-03-06T02:41:02;5.13;;;2.77;;
10701;SDS011;5402;50.004;8.246;2024-03-06T02:43:29;2.83;;;2.40;;
10701;SDS011;5402;50.004;8.246;2024-03-06T02:45:55;3.73;;;2.50;;
10701;SDS011;5402;50.004;8.246;2024-03-06T02:48:22;2.77;;;2.30;;
10701;SDS011;5402;50.004;8.246;2024-03-06T02:50:49;4.17;;;2.60;;
10701;SDS011;5402;50.004;8.246;2024-03-06T02:53:16;3.60;;;2.67;;
10701;SDS011;5402;50.004;8.246;2024-03-06T02:55:44;2.77;;;2.40;;
10701;SDS011;5402;50.004;8.246;2024-03-06T02:58:10;4.67;;;2.93;;
10701;SDS011;5402;50.004;8.246;2024-03-06T03:00:39;3.17;;;2.50;;
10701;SDS011;5402;50.004;8.246;2024-03-06T03:03:08;2.67;;;2.23;;
10701;SDS011;5402;50.004;8.246;2024-03-06T03:05:37;2.30;;;1.97;;
10701;SDS011;5402;50.004;8.246;2024-03-06T03:08:04;3.53;;;2.30;;
10701;SDS011;5402;50.004;8.246;2024-03-06T03:10:31;3.33;;;2.30;;
10701;SDS011;5402;50.004;8.246;2024-03-06T03:13:01;2.80;;;2.50;;
10701;SDS011;5402;50.004;8.246;2024-03-06T03:15:29;3.00;;;2.50;;
10701;SDS011;5402;50.004;8.246;2024-03-06T03:17:57;3.47;;;2.40;;
10701;SDS011;5402;50.004;8.246;2024-03-06T03:20:24;2.73;;;2.43;;
10701;SDS011;5402;50.004;8.246;2024-03-06T03:22:51;2.63;;;2.37;;
10701;SDS011;5402;50.004;8.246;2024-03-06T03:25:17;3.93;;;2.43;;
10701;SDS011;5402;50.004;8.246;2024-03-06T03:27:46;3.20;;;2.50;;
10701;SDS011;5402;50.004;8.246;2024-03-06T03:30:15;3.37;;;2.80;;
10701;SDS011;5402;50.004;8.246;2024-03-06T03:32:41;4.53;;;2.77;;
10701;SDS011;5402;50.004;8.246;2024-03-06T03:35:08;2.97;;;2.23;;
10701;SDS011;5402;50.004;8.246;2024-03-06T03:37:35;7.03;;;3.20;;
10701;SDS011;5402;50.004;8.246;2024-03-06T03:40:02;4.27;;;2.70;;
10701;SDS011;5402;50.004;8.246;2024-03-06T03:42:29;3.23;;;2.50;;
10701;SDS011;5402;50.004;8.246;2024-03-06T03:44:56;4.03;;;3.00;;
10701;SDS011;5402;50.004;8.246;2024-03-06T03:47:26;3.43;;;2.63;;
10701;SDS011;5402;50.004;8.246;2024-03-06T03:49:53;3.70;;;2.50;;
10701;SDS011;5402;50.004;8.246;2024-03-06T03:52:20;3.83;;;2.50;;
10701;SDS011;5402;50.004;8.246;2024-03-06T03:54:49;4.23;;;2.70;;
10701;SDS011;5402;50.004;8.246;2024-03-06T03:57:16;3.27;;;2.80;;
10701;SDS011;5402;50.004;8.246;2024-03-06T03:59:43;3.13;;;2.70;;
10701;SDS011;5402;50.004;8.246;2024-03-06T04:02:10;3.50;;;3.03;;
10701;SDS011;5402;50.004;8.246;2024-03-06T04:04:40;3.87;;;3.07;;
10701;SDS011;5402;50.004;8.246;2024-03-06T04:07:07;3.97;;;3.07;;
10701;SDS011;5402;50.004;8.246;2024-03-06T04:09:34;4.00;;;2.83;;
10701;SDS011;5402;50.004;8.246;2024-03-06T04:12:04;3.50;;;3.10;;
10701;SDS011;5402;50.004;8.246;2024-03-06T04:14:33;4.43;;;2.90;;
10701;SDS011;5402;50.004;8.246;2024-03-06T04:17:02;4.23;;;3.23;;
10701;SDS011;5402;50.004;8.246;2024-03-06T04:19:30;4.67;;;3.23;;
10701;SDS011;5402;50.004;8.246;2024-03-06T04:21:59;4.00;;;2.73;;
10701;SDS011;5402;50.004;8.246;2024-03-06T04:24:26;3.90;;;3.17;;
10701;SDS011;5402;50.004;8.246;2024-03-06T04:26:54;5.83;;;3.07;;
10701;SDS011;5402;50.004;8.246;2024-03-06T04:29:22;4.63;;;3.20;;
10701;SDS011;5402;50.004;8.246;2024-03-06T04:31:52;4.33;;;3.53;;
10701;SDS011;5402;50.004;8.246;2024-03-06T04:34:21;4.13;;;3.03;;
10701;SDS011;5402;50.004;8.246;2024-03-06T04:36:48;5.60;;;3.00;;
10701;SDS011;5402;50.004;8.246;2024-03-06T04:39:19;4.87;;;3.30;;
10701;SDS011;5402;50.004;8.246;2024-03-06T04:41:48;5.77;;;3.70;;
10701;SDS011;5402;50.004;8.246;2024-03-06T04:44:14;4.73;;;3.70;;
10701;SDS011;5402;50.004;8.246;2024-03-06T04:46:42;3.97;;;3.13;;
10701;SDS011;5402;50.004;8.246;2024-03-06T04:49:09;5.37;;;3.37;;
10701;SDS011;5402;50.004;8.246;2024-03-06T04:51:35;4.17;;;3.47;;
10701;SDS011;5402;50.004;8.246;2024-03-06T04:54:02;6.63;;;3.40;;
10701;SDS011;5402;50.004;8.246;2024-03-06T04:56:30;5.50;;;3.27;;
10701;SDS011;5402;50.004;8.246;2024-03-06T04:58:57;5.33;;;3.23;;
10701;SDS011;5402;50.004;8.246;2024-03-06T05:01:27;17.07;;;11.17;;
10701;SDS011;5402;50.004;8.246;2024-03-06T05:03:55;10.60;;;7.07;;
10701;SDS011;5402;50.004;8.246;2024-03-06T05:06:22;9.63;;;6.87;;
10701;SDS011;5402;50.004;8.246;2024-03-06T05:08:49;6.17;;;4.40;;
10701;SDS011;5402;50.004;8.246;2024-03-06T05:11:16;5.50;;;3.37;;
10701;SDS011;5402;50.004;8.246;2024-03-06T05:13:44;4.10;;;3.00;;
10701;SDS011;5402;50.004;8.246;2024-03-06T05:16:11;6.33;;;3.67;;
10701;SDS011;5402;50.004;8.246;2024-03-06T05:18:37;5.93;;;3.83;;
10701;SDS011;5402;50.004;8.246;2024-03-06T05:21:04;4.70;;;3.67;;
10701;SDS011;5402;50.004;8.246;2024-03-06T05:23:31;4.53;;;3.27;;
10701;SDS011;5402;50.004;8.246;2024-03-06T05:25:58;4.20;;;3.13;;
10701;SDS011;5402;50.004;8.246;2024-03-06T05:28:24;5.27;;;3.20;;
10701;SDS011;5402;50.004;8.246;2024-03-06T05:30:52;5.63;;;4.07;;
10701;SDS011;5402;50.004;8.246;2024-03-06T05:33:19;5.23;;;4.00;;
10701;SDS011;5402;50.004;8.246;2024-03-06T05:35:46;5.67;;;3.90;;
10701;SDS011;5402;50.004;8.246;2024-03-06T05:38:13;4.77;;;3.27;;
10701;SDS011;5402;50.004;8.246;2024-03-06T05:40:40;5.40;;;3.20;;
10701;SDS011;5402;50.004;8.246;2024-03-06T05:43:13;5.73;;;3.70;;
10701;SDS011;5402;50.004;8.246;2024-03-06T05:45:40;5.63;;;3.67;;
10701;SDS011;5402;50.004;8.246;2024-03-06T05:48:08;5.87;;;3.37;;
10701;SDS011;5402;50.004;8.246;2024-03-06T05:50:35;4.87;;;3.37;;
10701;SDS011;5402;50.004;8.246;2024-03-06T05:53:02;3.80;;;3.07;;
10701;SDS011;5402;50.004;8.246;2024-03-06T05:55:28;5.33;;;3.40;;
10701;SDS011;5402;50.004;8.246;2024-03-06T05:57:55;4.47;;;3.00;;
10701;SDS011;5402;50.004;8.246;2024-03-06T06:00:22;3.87;;;3.00;;
10701;SDS011;5402;50.004;8.246;2024-03-06T06:02:49;4.37;;;3.07;;
10701;SDS011;5402;50.004;8.246;2024-03-06T06:05:17;6.77;;;3.40;;
10701;SDS011;5402;50.004;8.246;2024-03-06T06:07:45;5.20;;;3.50;;
10701;SDS011;5402;50.004;8.246;2024-03-06T06:10:11;3.80;;;2.90;;
10701;SDS011;5402;50.004;8.246;2024-03-06T06:12:38;4.93;;;3.50;;
10701;SDS011;5402;50.004;8.246;2024-03-06T06:15:06;6.87;;;2.83;;
10701;SDS011;5402;50.004;8.246;2024-03-06T06:17:34;6.17;;;3.13;;
10701;SDS011;5402;50.004;8.246;2024-03-06T06:20:02;4.07;;;3.43;;
10701;SDS011;5402;50.004;8.246;2024-03-06T06:22:35;4.77;;;3.13;;
10701;SDS011;5402;50.004;8.246;2024-03-06T06:25:02;6.90;;;3.37;;
10701;SDS011;5402;50.004;8.246;2024-03-06T06:27:30;4.13;;;3.30;;
10701;SDS011;5402;50.004;8.246;2024-03-06T06:29:57;5.50;;;3.60;;
10701;SDS011;5402;50.004;8.246;2024-03-06T06:32:25;5.97;;;3.53;;
10701;SDS011;5402;50.004;8.246;2024-03-06T06:34:52;4.53;;;3.40;;
10701;SDS011;5402;50.004;8.246;2024-03-06T06:37:18;5.87;;;3.53;;
10701;SDS011;5402;50.004;8.246;2024-03-06T06:39:47;5.17;;;3.43;;
10701;SDS011;5402;50.004;8.246;2024-03-06T06:42:15;4.73;;;3.60;;
10701;SDS011;5402;50.004;8.246;2024-03-06T06:44:42;4.90;;;3.57;;
10701;SDS011;5402;50.004;8.246;2024-03-06T06:47:09;6.00;;;3.80;;
10701;SDS011;5402;50.004;8.246;2024-03-06T06:49:37;8.10;;;3.40;;
10701;SDS011;5402;50.004;8.246;2024-03-06T06:52:06;5.83;;;4.00;;
10701;SDS011;5402;50.004;8.246;2024-03-06T06:54:33;4.47;;;3.33;;
10701;SDS011;5402;50.004;8.246;2024-03-06T06:57:02;4.37;;;3.37;;
10701;SDS011;5402;50.004;8.246;2024-03-06T06:59:31;4.10;;;3.17;;
10701;SDS011;5402;50.004;8.246;2024-03-06T07:02:00;4.67;;;3.10;;
10701;SDS011;5402;50.004;8.246;2024-03-06T07:04:29;4.10;;;3.27;;
10701;SDS011;5402;50.004;8.246;2024-03-06T07:06:59;4.70;;;3.70;;
10701;SDS011;5402;50.004;8.246;2024-03-06T07:09:27;8.33;;;4.03;;
10701;SDS011;5402;50.004;8.246;2024-03-06T07:11:54;7.40;;;3.83;;
10701;SDS011;5402;50.004;8.246;2024-03-06T07:14:23;7.13;;;3.40;;
10701;SDS011;5402;50.004;8.246;2024-03-06T07:16:50;6.77;;;4.17;;
10701;SDS011;5402;50.004;8.246;2024-03-06T07:19:16;5.07;;;3.90;;
10701;SDS011;5402;50.004;8.246;2024-03-06T07:21:44;7.17;;;4.00;;
10701;SDS011;5402;50.004;8.246;2024-03-06T07:24:14;6.43;;;4.17;;
10701;SDS011;5402;50.004;8.246;2024-03-06T07:26:41;5.20;;;4.10;;
10701;SDS011;5402;50.004;8.246;2024-03-06T07:29:08;5.87;;;4.33;;
10701;SDS011;5402;50.004;8.246;2024-03-06T07:31:41;8.03;;;4.73;;
10701;SDS011;5402;50.004;8.246;2024-03-06T07:34:08;5.03;;;4.20;;
10701;SDS011;5402;50.004;8.246;2024-03-06T07:36:35;6.47;;;4.27;;
10701;SDS011;5402;50.004;8.246;2024-03-06T07:39:02;8.33;;;4.77;;
10701;SDS011;5402;50.004;8.246;2024-03-06T07:41:30;6.83;;;3.80;;
10701;SDS011;5402;50.004;8.246;2024-03-06T07:43:58;5.27;;;3.77;;
10701;SDS011;5402;50.004;8.246;2024-03-06T07:46:25;5.30;;;4.20;;
10701;SDS011;5402;50.004;8.246;2024-03-06T07:48:53;5.03;;;3.90;;
10701;SDS011;5402;50.004;8.246;2024-03-06T07:51:21;4.80;;;4.00;;
10701;SDS011;5402;50.004;8.246;2024-03-06T07:53:47;5.03;;;3.73;;
10701;SDS011;5402;50.004;8.246;2024-03-06T07:56:15;6.67;;;3.97;;
10701;SDS011;5402;50.004;8.246;2024-03-06T07:58:42;6.37;;;4.23;;
10701;SDS011;5402;50.004;8.246;2024-03-06T08:01:09;6.27;;;4.20;;
10701;SDS011;5402;50.004;8.246;2024-03-06T08:03:38;8.57;;;3.93;;
10701;SDS011;5402;50.004;8.246;2024-03-06T08:06:07;6.10;;;4.20;;
10701;SDS011;5402;50.004;8.246;2024-03-06T08:08:33;5.10;;;3.90;;
10701;SDS011;5402;50.004;8.246;2024-03-06T08:11:00;6.43;;;4.23;;
10701;SDS011;5402;50.004;8.246;2024-03-06T08:13:27;7.40;;;3.70;;
10701;SDS011;5402;50.004;8.246;2024-03-06T08:15:54;4.20;;;3.60;;
10701;SDS011;5402;50.004;8.246;2024-03-06T08:18:22;5.97;;;4.13;;
10701;SDS011;5402;50.004;8.246;2024-03-06T08:20:48;5.13;;;3.60;;
10701;SDS011;5402;50.004;8.246;2024-03-06T08:23:16;4.67;;;3.60;;
10701;SDS011;5402;50.004;8.246;2024-03-06T08:25:43;5.47;;;3.80;;
10701;SDS011;5402;50.004;8.246;2024-03-06T08:28:10;5.33;;;3.90;;
10701;SDS011;5402;50.004;8.246;2024-03-06T08:30:37;5.10;;;3.70;;
10701;SDS011;5402;50.004;8.246;2024-03-06T08:33:04;5.00;;;3.57;;
10701;SDS011;5402;50.004;8.246;2024-03-06T08:35:30;6.63;;;3.77;;
10701;SDS011;5402;50.004;8.246;2024-03-06T08:37:57;4.77;;;3.80;;
10701;SDS011;5402;50.004;8.246;2024-03-06T08:40:25;5.73;;;3.73;;
10701;SDS011;5402;50.004;8.246;2024-03-06T08:42:53;6.70;;;4.03;;
10701;SDS011;5402;50.004;8.246;2024-03-06T08:45:20;5.57;;;3.97;;
10701;SDS011;5402;50.004;8.246;2024-03-06T08:47:48;6.30;;;4.57;;
10701;SDS011;5402;50.004;8.246;2024-03-06T08:50:17;6.27;;;3.43;;
10701;SDS011;5402;50.004;8.246;2024-03-06T08:52:44;5.50;;;3.83;;
10701;SDS011;5402;50.004;8.246;2024-03-06T08:55:11;5.53;;;3.87;;
10701;SDS011;5402;50.004;8.246;2024-03-06T08:57:39;5.03;;;3.87;;
10701;SDS011;5402;50.004;8.246;2024-03-06T09:00:07;6.33;;;4.27;;
10701;SDS011;5402;50.004;8.246;2024-03-06T09:02:35;7.93;;;4.30;;
10701;SDS011;5402;50.004;8.246;2024-03-06T09:05:03;7.20;;;4.30;;
10701;SDS011;5402;50.004;8.246;2024-03-06T09:07:30;6.63;;;4.20;;
10701;SDS011;5402;50.004;8.246;2024-03-06T09:10:02;8.17;;;4.70;;
10701;SDS011;5402;50.004;8.246;2024-03-06T09:12:30;6.07;;;4.27;;
10701;SDS011;5402;50.004;8.246;2024-03-06T09:14:58;7.43;;;4.10;;
10701;SDS011;5402;50.004;8.246;2024-03-06T09:17:26;9.03;;;5.13;;
10701;SDS011;5402;50.004;8.246;2024-03-06T09:19:53;12.77;;;5.67;;
10701;SDS011;5402;50.004;8.246;2024-03-06T09:22:20;8.23;;;5.53;;
10701;SDS011;5402;50.004;8.246;2024-03-06T09:24:46;10.10;;;6.15;;
10701;SDS011;5402;50.004;8.246;2024-03-06T09:27:14;12.40;;;5.97;;
10701;SDS011;5402;50.004;8.246;2024-03-06T09:29:41;8.70;;;5.83;;
10701;SDS011;5402;50.004;8.246;2024-03-06T09:32:09;9.53;;;5.63;;
10701;SDS011;5402;50.004;8.246;2024-03-06T09:34:38;11.67;;;7.03;;
10701;SDS011;5402;50.004;8.246;2024-03-06T09:37:04;11.43;;;6.87;;
10701;SDS011;5402;50.004;8.246;2024-03-06T09:39:31;9.60;;;7.17;;
10701;SDS011;5402;50.004;8.246;2024-03-06T09:41:59;11.73;;;7.80;;
10701;SDS011;5402;50.004;8.246;2024-03-06T09:44:26;12.27;;;7.50;;
10701;SDS011;5402;50.004;8.246;2024-03-06T09:46:54;12.07;;;7.37;;
10701;SDS011;5402;50.004;8.246;2024-03-06T09:49:25;11.90;;;8.40;;
10701;SDS011;5402;50.004;8.246;2024-03-06T09:51:51;13.37;;;8.90;;
10701;SDS011;5402;50.004;8.246;2024-03-06T09:54:20;14.03;;;8.83;;
10701;SDS011;5402;50.004;8.246;2024-03-06T09:56:49;14.30;;;8.03;;
10701;SDS011;5402;50.004;8.246;2024-03-06T09:59:15;17.20;;;9.10;;
10701;SDS011;5402;50.004;8.246;2024-03-06T10:01:44;14.07;;;8.80;;
10701;SDS011;5402;50.004;8.246;2024-03-06T10:04:19;17.83;;;10.43;;
10701;SDS011;5402;50.004;8.246;2024-03-06T10:06:47;12.87;;;9.17;;
10701;SDS011;5402;50.004;8.246;2024-03-06T10:09:16;14.67;;;10.10;;
10701;SDS011;5402;50.004;8.246;2024-03-06T10:11:44;13.50;;;9.60;;
10701;SDS011;5402;50.004;8.246;2024-03-06T10:14:11;14.13;;;9.30;;
10701;SDS011;5402;50.004;8.246;2024-03-06T10:16:51;15.73;;;10.30;;
10701;SDS011;5402;50.004;8.246;2024-03-06T10:19:19;15.50;;;9.93;;
10701;SDS011;5402;50.004;8.246;2024-03-06T10:21:47;13.93;;;9.27;;
10701;SDS011;5402;50.004;8.246;2024-03-06T10:24:19;15.40;;;9.70;;
10701;SDS011;5402;50.004;8.246;2024-03-06T10:26:48;11.53;;;8.73;;
10701;SDS011;5402;50.004;8.246;2024-03-06T10:29:16;13.97;;;9.10;;
10701;SDS011;5402;50.004;8.246;2024-03-06T10:31:48;13.47;;;9.23;;
10701;SDS011;5402;50.004;8.246;2024-03-06T10:34:16;15.23;;;9.57;;
10701;SDS011;5402;50.004;8.246;2024-03-06T10:36:43;14.53;;;9.43;;
10701;SDS011;5402;50.004;8.246;2024-03-06T10:39:12;13.17;;;9.03;;
10701;SDS011;5402;50.004;8.246;2024-03-06T10:41:39;14.13;;;8.97;;
10701;SDS011;5402;50.004;8.246;2024-03-06T10:44:08;14.97;;;9.47;;
10701;SDS011;5402;50.004;8.246;2024-03-06T10:46:40;15.00;;;8.53;;
10701;SDS011;5402;50.004;8.246;2024-03-06T10:49:09;10.23;;;6.93;;
10701;SDS011;5402;50.004;8.246;2024-03-06T10:51:40;10.57;;;6.73;;
10701;SDS011;5402;50.004;8.246;2024-03-06T10:54:10;12.60;;;7.67;;
10701;SDS011;5402;50.004;8.246;2024-03-06T10:56:39;10.40;;;6.93;;
10701;SDS011;5402;50.004;8.246;2024-03-06T10:59:08;11.93;;;6.97;;
10701;SDS011;5402;50.004;8.246;2024-03-06T11:01:37;11.30;;;8.17;;
10701;SDS011;5402;50.004;8.246;2024-03-06T11:04:05;13.17;;;7.10;;
10701;SDS011;5402;50.004;8.246;2024-03-06T11:06:33;9.47;;;6.67;;
10701;SDS011;5402;50.004;8.246;2024-03-06T11:09:00;10.00;;;6.20;;
10701;SDS011;5402;50.004;8.246;2024-03-06T11:11:29;10.13;;;6.37;;
10701;SDS011;5402;50.004;8.246;2024-03-06T11:13:59;11.77;;;6.03;;
10701;SDS011;5402;50.004;8.246;2024-03-06T11:16:27;10.30;;;6.77;;
10701;SDS011;5402;50.004;8.246;2024-03-06T11:19:04;9.80;;;6.87;;
10701;SDS011;5402;50.004;8.246;2024-03-06T11:21:33;10.60;;;7.00;;
10701;SDS011;5402;50.004;8.246;2024-03-06T11:24:12;11.43;;;7.30;;
10701;SDS011;5402;50.004;8.246;2024-03-06T11:26:43;9.30;;;5.90;;
10701;SDS011;5402;50.004;8.246;2024-03-06T11:29:13;11.10;;;6.70;;
10701;SDS011;5402;50.004;8.246;2024-03-06T11:31:55;9.80;;;5.87;;
10701;SDS011;5402;50.004;8.246;2024-03-06T11:34:27;10.63;;;6.80;;
10701;SDS011;5402;50.004;8.246;2024-03-06T11:36:56;10.23;;;6.07;;
10701;SDS011;5402;50.004;8.246;2024-03-06T11:39:23;9.40;;;6.17;;
10701;SDS011;5402;50.004;8.246;2024-03-06T11:41:51;12.50;;;6.90;;
10701;SDS011;5402;50.004;8.246;2024-03-06T11:44:18;10.93;;;7.40;;
10701;SDS011;5402;50.004;8.246;2024-03-06T11:46:47;11.57;;;7.17;;
10701;SDS011;5402;50.004;8.246;2024-03-06T11:49:15;7.97;;;6.23;;
10701;SDS011;5402;50.004;8.246;2024-03-06T11:51:44;8.83;;;6.27;;
10701;SDS011;5402;50.004;8.246;2024-03-06T11:54:11;8.73;;;6.23;;
10701;SDS011;5402;50.004;8.246;2024-03-06T11:56:38;13.90;;;7.63;;
10701;SDS011;5402;50.004;8.246;2024-03-06T11:59:07;9.87;;;6.40;;
10701;SDS011;5402;50.004;8.246;2024-03-06T12:01:34;9.07;;;6.33;;
10701;SDS011;5402;50.004;8.246;2024-03-06T12:04:01;9.53;;;6.40;;
10701;SDS011;5402;50.004;8.246;2024-03-06T12:06:30;9.23;;;6.57;;
10701;SDS011;5402;50.004;8.246;2024-03-06T12:08:58;8.57;;;6.37;;
10701;SDS011;5402;50.004;8.246;2024-03-06T12:11:25;9.47;;;6.20;;
10701;SDS011;5402;50.004;8.246;2024-03-06T12:13:53;9.50;;;6.40;;
10701;SDS011;5402;50.004;8.246;2024-03-06T12:16:22;8.60;;;5.63;;
10701;SDS011;5402;50.004;8.246;2024-03-06T12:18:53;8.93;;;6.43;;
10701;SDS011;5402;50.004;8.246;2024-03-06T12:21:22;7.00;;;5.60;;
10701;SDS011;5402;50.004;8.246;2024-03-06T12:24:01;11.30;;;6.20;;
10701;SDS011;5402;50.004;8.246;2024-03-06T12:26:29;8.17;;;6.43;;
10701;SDS011;5402;50.004;8.246;2024-03-06T12:29:03;8.47;;;5.83;;
10701;SDS011;5402;50.004;8.246;2024-03-06T12:31:34;7.33;;;5.20;;
10701;SDS011;5402;50.004;8.246;2024-03-06T12:34:02;10.50;;;5.87;;
10701;SDS011;5402;50.004;8.246;2024-03-06T12:36:29;7.80;;;5.80;;
10701;SDS011;5402;50.004;8.246;2024-03-06T12:38:58;7.40;;;4.97;;
10701;SDS011;5402;50.004;8.246;2024-03-06T12:41:26;8.83;;;6.20;;
10701;SDS011;5402;50.004;8.246;2024-03-06T12:43:54;10.87;;;7.70;;
10701;SDS011;5402;50.004;8.246;2024-03-06T12:46:21;11.13;;;8.03;;
10701;SDS011;5402;50.004;8.246;2024-03-06T12:48:50;12.80;;;8.40;;
10701;SDS011;5402;50.004;8.246;2024-03-06T12:51:17;12.43;;;9.10;;
10701;SDS011;5402;50.004;8.246;2024-03-06T12:53:44;13.10;;;8.73;;
10701;SDS011;5402;50.004;8.246;2024-03-06T12:56:13;14.07;;;8.53;;
10701;SDS011;5402;50.004;8.246;2024-03-06T12:58:39;13.50;;;8.63;;
10701;SDS011;5402;50.004;8.246;2024-03-06T13:01:06;13.87;;;8.97;;
10701;SDS011;5402;50.004;8.246;2024-03-06T13:03:34;14.03;;;9.07;;
10701;SDS011;5402;50.004;8.246;2024-03-06T13:06:03;15.67;;;8.83;;
10701;SDS011;5402;50.004;8.246;2024-03-06T13:08:30;14.73;;;8.83;;
10701;SDS011;5402;50.004;8.246;2024-03-06T13:10:57;11.97;;;7.50;;
10701;SDS011;5402;50.004;8.246;2024-03-06T13:13:24;12.97;;;8.47;;
10701;SDS011;5402;50.004;8.246;2024-03-06T13:15:53;12.93;;;8.63;;
10701;SDS011;5402;50.004;8.246;2024-03-06T13:18:20;12.90;;;8.40;;
10701;SDS011;5402;50.004;8.246;2024-03-06T13:20:47;11.93;;;7.27;;
10701;SDS011;5402;50.004;8.246;2024-03-06T13:23:16;12.87;;;8.33;;
10701;SDS011;5402;50.004;8.246;2024-03-06T13:25:43;13.30;;;8.23;;
10701;SDS011;5402;50.004;8.246;2024-03-06T13:28:10;14.03;;;9.03;;
10701;SDS011;5402;50.004;8.246;2024-03-06T13:30:38;14.10;;;9.20;;
10701;SDS011;5402;50.004;8.246;2024-03-06T13:33:04;15.33;;;9.20;;
10701;SDS011;5402;50.004;8.246;2024-03-06T13:35:32;13.33;;;8.03;;
10701;SDS011;5402;50.004;8.246;2024-03-06T13:37:59;13.93;;;8.27;;
10701;SDS011;5402;50.004;8.246;2024-03-06T13:40:29;13.47;;;8.53;;
10701;SDS011;5402;50.004;8.246;2024-03-06T13:42:56;13.93;;;8.97;;
10701;SDS011;5402;50.004;8.246;2024-03-06T13:45:22;14.43;;;8.93;;
10701;SDS011;5402;50.004;8.246;2024-03-06T13:47:49;13.87;;;8.93;;
10701;SDS011;5402;50.004;8.246;2024-03-06T13:50:16;13.23;;;8.83;;
10701;SDS011;5402;50.004;8.246;2024-03-06T13:52:43;14.43;;;9.07;;
10701;SDS011;5402;50.004;8.246;2024-03-06T13:55:10;11.93;;;8.07;;
10701;SDS011;5402;50.004;8.246;2024-03-06T13:57:39;11.57;;;7.53;;
10701;SDS011;5402;50.004;8.246;2024-03-06T14:00:07;11.60;;;7.67;;
10701;SDS011;5402;50.004;8.246;2024-03-06T14:02:42;11.90;;;7.50;;
10701;SDS011;5402;50.004;8.246;2024-03-06T14:05:10;10.83;;;7.10;;
10701;SDS011;5402;50.004;8.246;2024-03-06T14:07:37;11.17;;;7.53;;
10701;SDS011;5402;50.004;8.246;2024-03-06T14:10:05;11.03;;;6.57;;
10701;SDS011;5402;50.004;8.246;2024-03-06T14:12:33;12.77;;;7.63;;
10701;SDS011;5402;50.004;8.246;2024-03-06T14:15:02;10.47;;;7.33;;
10701;SDS011;5402;50.004;8.246;2024-03-06T14:17:30;11.47;;;6.97;;
10701;SDS011;5402;50.004;8.246;2024-03-06T14:19:56;10.10;;;6.07;;
10701;SDS011;5402;50.004;8.246;2024-03-06T14:22:23;10.80;;;6.47;;
10701;SDS011;5402;50.004;8.246;2024-03-06T14:24:50;9.03;;;6.50;;
10701;SDS011;5402;50.004;8.246;2024-03-06T14:27:16;9.30;;;6.17;;
10701;SDS011;5402;50.004;8.246;2024-03-06T14:29:43;10.47;;;6.00;;
10701;SDS011;5402;50.004;8.246;2024-03-06T14:32:13;8.87;;;5.63;;
10701;SDS011;5402;50.004;8.246;2024-03-06T14:34:40;9.43;;;5.80;;
10701;SDS011;5402;50.004;8.246;2024-03-06T14:37:08;9.63;;;6.63;;
10701;SDS011;5402;50.004;8.246;2024-03-06T14:39:35;9.00;;;6.13;;
10701;SDS011;5402;50.004;8.246;2024-03-06T14:42:02;10.63;;;6.73;;
10701;SDS011;5402;50.004;8.246;2024-03-06T14:44:29;9.73;;;6.00;;
10701;SDS011;5402;50.004;8.246;2024-03-06T14:46:56;8.90;;;6.23;;
10701;SDS011;5402;50.004;8.246;2024-03-06T14:49:24;8.77;;;6.23;;
10701;SDS011;5402;50.004;8.246;2024-03-06T14:51:51;9.77;;;6.93;;
10701;SDS011;5402;50.004;8.246;2024-03-06T14:54:18;11.67;;;7.13;;
10701;SDS011;5402;50.004;8.246;2024-03-06T14:56:45;11.23;;;6.70;;
10701;SDS011;5402;50.004;8.246;2024-03-06T14:59:11;11.03;;;6.57;;
10701;SDS011;5402;50.004;8.246;2024-03-06T15:01:38;9.67;;;6.33;;